Time;durP1;ratioP1;P1;durP2;ratioP2;P2;SDS_P1;SDS_P2;PMS_P1;PMS_P2;Temp;Humidity;BMP_temperature;BMP_pressure;BME280_temperature;BME280_humidity;BME280_pressure;Samples;Min_cycle;Max_cycle;Signal;HPM_P1;HPM_P2
2022/12/17 13:07:48;;;;;;;;;;;0.70;99.90;;;;;;5134117;27;19962;-71
2022/12/17 13:10:30;;;;;;;;;;;0.70;99.90;;;;;;5115161;27;19920;-72
2022/12/17 13:12:56;;;;;;;;;;;0.70;99.90;;;;;;5131649;27;19923;-74
2022/12/17 13:15:35;;;;;;;;;;;0.70;99.90;;;;;;5124826;27;19938;-74
2022/12/17 13:18:19;;;;;;;;;;;0.80;99.90;;;;;;5123407;27;19919;-73
2022/12/17 13:20:54;;;;;;;;;;;0.80;99.90;;;;;;5127536;27;20150;-70
2022/12/17 13:23:29;;;;;;;;;;;0.90;99.90;;;;;;5123962;27;20343;-73
2022/12/17 13:26:13;;;;;;;;;;;0.90;99.90;;;;;;5128782;27;19923;-74
2022/12/17 13:28:39;;;;;;;;;;;0.90;99.90;;;;;;5128486;27;20413;-73
2022/12/17 13:31:12;;;;;;;;;;;0.80;99.90;;;;;;5128391;27;19998;-72
2022/12/17 13:33:47;;;;;;;;;;;0.70;99.90;;;;;;5124223;27;19923;-72
2022/12/17 13:36:16;;;;;;;;;;;0.70;99.90;;;;;;5124698;27;19924;-73
2022/12/17 13:38:42;;;;;;;;;;;0.70;99.90;;;;;;5150275;27;19971;-74
2022/12/17 13:41:09;;;;;;;;;;;0.70;99.90;;;;;;5131356;27;19989;-72
2022/12/17 13:43:41;;;;;;;;;;;0.60;99.90;;;;;;5128633;27;19923;-72
2022/12/17 13:46:15;;;;;;;;;;;0.60;99.90;;;;;;5126057;27;19924;-71
2022/12/17 13:48:41;;;;;;;;;;;0.60;99.90;;;;;;5125394;27;19930;-73
2022/12/17 13:51:17;;;;;;;;;;;0.60;99.90;;;;;;5124859;27;19927;-74
2022/12/17 13:53:50;;;;;;;;;;;0.60;99.90;;;;;;5127245;27;19923;-75
2022/12/17 13:56:20;;;;;;;;;;;0.60;99.90;;;;;;5122286;27;19966;-75
2022/12/17 13:58:49;;;;;;;;;;;0.60;99.90;;;;;;5123463;27;19947;-75
2022/12/17 14:01:14;;;;;;;;;;;0.50;99.90;;;;;;5125782;27;19924;-73
2022/12/17 14:03:42;;;;;;;;;;;0.50;99.90;;;;;;5100825;27;19988;-70
2022/12/17 14:06:09;;;;;;;;;;;0.40;99.90;;;;;;5123673;27;20294;-72
2022/12/17 14:08:35;;;;;;;;;;;0.40;99.90;;;;;;5125812;27;19968;-73
2022/12/17 14:13:46;;;;;;;;;;;0.30;99.90;;;;;;5127164;27;19941;-71
2022/12/17 14:16:14;;;;;;;;;;;0.30;99.90;;;;;;5125502;27;19937;-72
2022/12/17 14:18:41;;;;;;;;;;;0.20;99.90;;;;;;5125262;27;20345;-74
2022/12/17 14:21:08;;;;;;;;;;;0.20;99.90;;;;;;5123477;27;19966;-75
2022/12/17 14:23:33;;;;;;;;;;;0.20;99.90;;;;;;5122304;27;19919;-73
2022/12/17 14:25:59;;;;;;;;;;;0.20;99.90;;;;;;5119065;27;19927;-73
2022/12/17 14:28:32;;;;;;;;;;;0.10;99.90;;;;;;5126012;27;19927;-73
2022/12/17 14:31:05;;;;;;;;;;;0.10;99.90;;;;;;5124307;27;19924;-71
2022/12/17 14:33:32;;;;;;;;;;;0.00;99.90;;;;;;5108691;27;19923;-73
2022/12/17 14:35:58;;;;;;;;;;;0.00;99.90;;;;;;5123685;27;19950;-72
2022/12/17 14:38:24;;;;;;;;;;;-0.10;99.90;;;;;;5125629;27;19926;-75
2022/12/17 14:40:50;;;;;;;;;;;-0.10;99.90;;;;;;5125345;27;19919;-74
2022/12/17 14:43:19;;;;;;;;;;;-0.20;99.90;;;;;;5125475;27;19928;-75
2022/12/17 14:51:20;;;;;;;;;;;-0.20;99.90;;;;;;5122821;27;19938;-74
2022/12/17 14:53:45;;;;;;;;;;;-0.20;99.90;;;;;;5124115;27;19972;-75
2022/12/17 14:56:21;;;;;;;;;;;-0.30;99.90;;;;;;5130430;27;20287;-73
2022/12/17 14:58:46;;;;;;;;;;;-0.30;99.90;;;;;;5127973;27;19935;-73
2022/12/17 15:01:12;;;;;;;;;;;-0.20;99.90;;;;;;5131283;27;20115;-73
2022/12/17 15:03:42;;;;;;;;;;;-0.30;99.90;;;;;;5130437;27;19926;-72
2022/12/17 15:06:12;;;;;;;;;;;-0.30;99.90;;;;;;5125869;27;20023;-71
2022/12/17 15:08:42;;;;;;;;;;;-0.40;99.90;;;;;;5122943;27;19919;-72
2022/12/17 15:11:09;;;;;;;;;;;-0.40;99.90;;;;;;5123096;27;19972;-72
2022/12/17 15:13:35;;;;;;;;;;;-0.40;99.90;;;;;;5128071;27;19923;-71
2022/12/17 15:16:00;;;;;;;;;;;-0.40;99.90;;;;;;5127764;27;19931;-73
2022/12/17 15:18:27;;;;;;;;;;;-0.50;99.90;;;;;;5126669;27;19927;-73
2022/12/17 15:20:52;;;;;;;;;;;-0.50;99.90;;;;;;5122233;27;19920;-74
2022/12/17 15:23:19;;;;;;;;;;;-0.50;99.90;;;;;;5123423;27;20022;-74
2022/12/17 15:25:45;;;;;;;;;;;-0.50;99.90;;;;;;5123654;27;19919;-74
2022/12/17 15:28:11;;;;;;;;;;;-0.60;99.90;;;;;;5125374;27;19926;-74
2022/12/17 15:30:38;;;;;;;;;;;-0.60;99.90;;;;;;5127415;27;19923;-73
2022/12/17 15:33:05;;;;;;;;;;;-0.70;99.90;;;;;;5124616;27;20018;-73
2022/12/17 15:35:30;;;;;;;;;;;-0.70;99.90;;;;;;5129714;27;20025;-73
2022/12/17 15:37:56;;;;;;;;;;;-0.70;99.90;;;;;;5124372;27;20452;-73
2022/12/17 15:40:21;;;;;;;;;;;-0.70;99.90;;;;;;5116416;27;19919;-73
2022/12/17 15:45:31;;;;;;;;;;;-0.80;99.90;;;;;;5145778;27;19997;-74
2022/12/17 15:47:57;;;;;;;;;;;-0.80;99.90;;;;;;5120268;27;19920;-74
2022/12/17 15:50:22;;;;;;;;;;;-0.90;99.90;;;;;;5118308;27;20369;-75
2022/12/17 15:52:48;;;;;;;;;;;-0.90;99.90;;;;;;5123258;27;19919;-73
2022/12/17 15:55:13;;;;;;;;;;;-0.90;99.90;;;;;;5118144;27;19928;-72
2022/12/17 15:57:39;;;;;;;;;;;-0.80;99.90;;;;;;5121733;27;19919;-73
2022/12/17 16:00:05;;;;;;;;;;;-0.90;99.90;;;;;;5116639;27;19919;-73
2022/12/17 16:02:33;;;;;;;;;;;-0.90;99.90;;;;;;5120839;27;20157;-74
2022/12/17 16:04:58;;;;;;;;;;;-1.00;99.90;;;;;;5118364;27;20373;-73
2022/12/17 16:07:24;;;;;;;;;;;-1.00;99.90;;;;;;5123126;27;19932;-72
2022/12/17 16:09:49;;;;;;;;;;;-1.00;99.90;;;;;;5116247;27;20370;-73
2022/12/17 16:12:15;;;;;;;;;;;-1.00;99.90;;;;;;5116034;27;19923;-73
2022/12/17 16:14:41;;;;;;;;;;;-1.00;99.90;;;;;;5121877;27;19949;-74
2022/12/17 16:17:06;;;;;;;;;;;-1.00;99.90;;;;;;5118723;27;21081;-74
2022/12/17 16:19:33;;;;;;;;;;;-1.00;99.90;;;;;;5119548;27;21500;-74
2022/12/17 16:21:58;;;;;;;;;;;-1.00;99.90;;;;;;5123877;27;19988;-73
2022/12/17 16:24:24;;;;;;;;;;;-1.10;99.90;;;;;;5126086;27;19927;-73
2022/12/17 16:26:49;;;;;;;;;;;-1.10;99.90;;;;;;5126277;27;20018;-73
2022/12/17 16:29:15;;;;;;;;;;;-1.10;99.90;;;;;;5123159;27;20008;-75
2022/12/17 16:31:40;;;;;;;;;;;-1.10;99.90;;;;;;5130477;27;20014;-75
2022/12/17 16:34:07;;;;;;;;;;;-1.10;99.90;;;;;;5127588;28;20022;-75
2022/12/17 16:36:33;;;;;;;;;;;-1.10;99.90;;;;;;5128249;28;19976;-73
2022/12/17 16:38:59;;;;;;;;;;;-1.10;99.90;;;;;;5113055;28;20278;-73
2022/12/17 16:41:25;;;;;;;;;;;-1.10;99.90;;;;;;5125117;28;19980;-74
2022/12/17 16:43:50;;;;;;;;;;;-1.10;99.90;;;;;;5122735;27;19927;-73
2022/12/17 16:46:32;;;;;;;;;;;-1.20;99.90;;;;;;5112433;28;20404;-73
2022/12/17 16:49:02;;;;;;;;;;;-1.20;99.90;;;;;;5126769;27;19923;-74
2022/12/17 16:51:28;;;;;;;;;;;-1.20;99.90;;;;;;5125355;27;19924;-73
2022/12/17 16:53:54;;;;;;;;;;;-1.20;99.90;;;;;;5124060;28;19926;-75
2022/12/17 16:56:21;;;;;;;;;;;-1.20;99.90;;;;;;5111318;28;19931;-72
2022/12/17 16:58:47;;;;;;;;;;;-1.20;99.90;;;;;;5119735;27;19950;-73
2022/12/17 17:01:16;;;;;;;;;;;-1.20;99.90;;;;;;5121149;28;19920;-73
2022/12/17 17:03:42;;;;;;;;;;;-1.30;99.90;;;;;;5112833;27;20256;-71
2022/12/17 17:06:08;;;;;;;;;;;-1.30;99.90;;;;;;5129823;27;19920;-74
2022/12/17 17:08:35;;;;;;;;;;;-1.30;99.90;;;;;;5125188;27;20010;-73
2022/12/17 17:11:08;;;;;;;;;;;-1.30;99.90;;;;;;5124479;27;19924;-72
2022/12/17 17:13:34;;;;;;;;;;;-1.30;99.90;;;;;;5120868;27;19962;-72
2022/12/17 17:16:00;;;;;;;;;;;-1.30;99.90;;;;;;5124789;27;20365;-73
2022/12/17 17:18:28;;;;;;;;;;;-1.30;99.90;;;;;;5125506;27;20305;-72
2022/12/17 17:21:10;;;;;;;;;;;-1.30;99.90;;;;;;5120699;27;20565;-71
2022/12/17 17:23:37;;;;;;;;;;;-1.40;99.90;;;;;;5127349;27;19928;-73
2022/12/17 17:26:03;;;;;;;;;;;-1.40;99.90;;;;;;5125865;27;19963;-72
2022/12/17 17:28:28;;;;;;;;;;;-1.40;99.90;;;;;;5122864;28;19971;-72
2022/12/17 17:30:58;;;;;;;;;;;-1.50;99.90;;;;;;5128900;27;19961;-74
2022/12/17 17:33:27;;;;;;;;;;;-1.50;99.90;;;;;;5121557;28;19961;-74
2022/12/17 17:35:53;;;;;;;;;;;-1.50;99.90;;;;;;5125340;28;19968;-73
2022/12/17 17:38:18;;;;;;;;;;;-1.50;99.90;;;;;;5126291;27;19920;-73
2022/12/17 17:40:44;;;;;;;;;;;-1.50;99.90;;;;;;5115487;27;19923;-73
2022/12/17 17:43:09;;;;;;;;;;;-1.40;99.90;;;;;;5123323;27;19978;-74
2022/12/17 17:45:34;;;;;;;;;;;-1.40;99.90;;;;;;5125522;27;20358;-74
2022/12/17 17:48:00;;;;;;;;;;;-1.40;99.90;;;;;;5125711;27;19931;-72
2022/12/17 17:50:25;;;;;;;;;;;-1.40;99.90;;;;;;5129888;27;20301;-74
2022/12/17 17:52:51;;;;;;;;;;;-1.50;99.90;;;;;;5131856;27;19919;-74
2022/12/17 17:55:16;;;;;;;;;;;-1.40;99.90;;;;;;5132077;27;20026;-74
2022/12/17 17:57:42;;;;;;;;;;;-1.40;99.90;;;;;;5133662;27;20331;-73
2022/12/17 18:00:08;;;;;;;;;;;-1.50;99.90;;;;;;5132769;27;19920;-73
2022/12/17 18:02:33;;;;;;;;;;;-1.50;99.90;;;;;;5129792;27;19919;-74
2022/12/17 18:04:59;;;;;;;;;;;-1.50;99.90;;;;;;5116162;27;19970;-74
2022/12/17 18:07:24;;;;;;;;;;;-1.50;99.90;;;;;;5123700;27;20290;-73
2022/12/17 18:09:50;;;;;;;;;;;-1.50;99.90;;;;;;5126830;27;20016;-74
2022/12/17 18:14:59;;;;;;;;;;;-1.50;99.90;;;;;;5127489;27;19982;-74
2022/12/17 18:17:25;;;;;;;;;;;-1.50;99.90;;;;;;5121896;27;19928;-73
2022/12/17 18:19:50;;;;;;;;;;;-1.50;99.90;;;;;;5113610;27;20400;-74
2022/12/17 18:22:16;;;;;;;;;;;-1.50;99.90;;;;;;5118888;27;19994;-74
2022/12/17 18:24:41;;;;;;;;;;;-1.50;99.90;;;;;;5121032;27;20358;-73
2022/12/17 18:27:07;;;;;;;;;;;-1.50;99.90;;;;;;5105347;27;20211;-73
2022/12/17 18:29:33;;;;;;;;;;;-1.50;99.90;;;;;;5105159;27;19973;-74
2022/12/17 18:31:58;;;;;;;;;;;-1.50;99.90;;;;;;5119852;27;19928;-69
2022/12/17 18:34:25;;;;;;;;;;;-1.60;99.90;;;;;;5124263;27;19920;-73
2022/12/17 18:36:51;;;;;;;;;;;-1.60;99.90;;;;;;5123796;27;19919;-73
2022/12/17 18:39:18;;;;;;;;;;;-1.60;99.90;;;;;;5120589;27;19930;-73
2022/12/17 18:44:29;;;;;;;;;;;-1.70;99.90;;;;;;5124337;27;19972;-70
2022/12/17 18:46:55;;;;;;;;;;;-1.70;99.90;;;;;;5128398;27;19919;-72
2022/12/17 18:49:21;;;;;;;;;;;-1.70;99.90;;;;;;5120614;27;20335;-72
2022/12/17 18:51:47;;;;;;;;;;;-1.70;99.90;;;;;;5103273;27;19927;-71
2022/12/17 18:54:14;;;;;;;;;;;-1.80;99.90;;;;;;5124325;27;19964;-73
2022/12/17 18:56:40;;;;;;;;;;;-1.70;99.90;;;;;;5121757;27;20386;-71
2022/12/17 18:59:05;;;;;;;;;;;-1.70;99.90;;;;;;5121070;27;19923;-73
2022/12/17 19:01:32;;;;;;;;;;;-1.70;99.90;;;;;;5122862;27;19927;-71
2022/12/17 19:04:02;;;;;;;;;;;-1.80;99.90;;;;;;5126313;27;20843;-69
2022/12/17 19:06:28;;;;;;;;;;;-1.80;99.90;;;;;;5119863;27;19919;-72
2022/12/17 19:08:53;;;;;;;;;;;-1.80;99.90;;;;;;5123324;27;19972;-73
2022/12/17 19:11:19;;;;;;;;;;;-1.80;99.90;;;;;;5118271;27;19969;-72
2022/12/17 19:13:45;;;;;;;;;;;-1.70;99.90;;;;;;5136711;27;19970;-73
2022/12/17 19:16:12;;;;;;;;;;;-1.80;99.90;;;;;;5121134;27;19966;-73
2022/12/17 19:18:38;;;;;;;;;;;-1.80;99.90;;;;;;5119632;27;20471;-73
2022/12/17 19:21:05;;;;;;;;;;;-1.80;99.90;;;;;;5117129;27;19923;-71
2022/12/17 19:23:31;;;;;;;;;;;-1.80;99.90;;;;;;5117637;27;20393;-72
2022/12/17 19:26:03;;;;;;;;;;;-1.90;99.90;;;;;;5117027;27;19927;-73
2022/12/17 19:28:28;;;;;;;;;;;-1.90;99.90;;;;;;5114817;27;19924;-73
2022/12/17 19:30:57;;;;;;;;;;;-1.90;99.90;;;;;;5117469;27;19935;-73
2022/12/17 19:33:22;;;;;;;;;;;-1.90;99.90;;;;;;5124078;27;19919;-71
2022/12/17 19:35:48;;;;;;;;;;;-1.90;99.90;;;;;;5123430;27;19924;-72
2022/12/17 19:38:13;;;;;;;;;;;-1.90;99.90;;;;;;5122286;27;19926;-73
2022/12/17 19:40:39;;;;;;;;;;;-2.00;99.90;;;;;;5120624;27;20479;-73
2022/12/17 19:43:05;;;;;;;;;;;-2.10;99.90;;;;;;5122384;27;19930;-73
2022/12/17 19:45:30;;;;;;;;;;;-2.00;99.90;;;;;;5127478;27;20289;-73
2022/12/17 19:47:56;;;;;;;;;;;-2.10;99.90;;;;;;5120368;27;20015;-73
2022/12/17 19:50:21;;;;;;;;;;;-2.00;99.90;;;;;;5120393;27;19923;-74
2022/12/17 19:52:47;;;;;;;;;;;-2.00;99.90;;;;;;5120515;27;20021;-73
2022/12/17 19:55:12;;;;;;;;;;;-2.10;99.90;;;;;;5121847;27;19923;-73
2022/12/17 19:57:38;;;;;;;;;;;-2.10;99.90;;;;;;5120619;27;20047;-73
2022/12/17 20:00:03;;;;;;;;;;;-2.00;99.90;;;;;;5124542;27;20064;-73
2022/12/17 20:02:29;;;;;;;;;;;-2.10;99.90;;;;;;5122274;27;19968;-74
2022/12/17 20:04:54;;;;;;;;;;;-2.00;99.90;;;;;;5121073;27;20402;-74
2022/12/17 20:07:20;;;;;;;;;;;-2.00;99.90;;;;;;5105701;27;19919;-74
2022/12/17 20:09:45;;;;;;;;;;;-2.00;99.90;;;;;;5122470;27;19970;-74
2022/12/17 20:12:11;;;;;;;;;;;-2.00;99.90;;;;;;5118238;27;20026;-73
2022/12/17 20:14:37;;;;;;;;;;;-2.00;99.90;;;;;;5115320;27;20052;-73
2022/12/17 20:17:03;;;;;;;;;;;-2.00;99.90;;;;;;5120905;27;20263;-73
2022/12/17 20:19:30;;;;;;;;;;;-2.00;99.90;;;;;;5118500;27;20033;-73
2022/12/17 20:21:56;;;;;;;;;;;-2.10;99.90;;;;;;5120096;27;19927;-73
2022/12/17 20:24:22;;;;;;;;;;;-2.00;99.90;;;;;;5121642;27;20002;-73
2022/12/17 20:26:48;;;;;;;;;;;-2.00;99.90;;;;;;5118787;27;20032;-73
2022/12/17 20:29:13;;;;;;;;;;;-2.00;99.90;;;;;;5125318;27;20006;-74
2022/12/17 20:31:41;;;;;;;;;;;-2.10;99.90;;;;;;5122148;27;20060;-73
2022/12/17 20:34:07;;;;;;;;;;;-2.00;99.90;;;;;;5120026;27;20583;-73
2022/12/17 20:36:33;;;;;;;;;;;-2.00;99.90;;;;;;5118796;27;19931;-73
2022/12/17 20:38:59;;;;;;;;;;;-2.10;99.90;;;;;;5124929;27;19919;-73
2022/12/17 20:41:25;;;;;;;;;;;-2.00;99.90;;;;;;5114582;27;19928;-72
2022/12/17 20:43:52;;;;;;;;;;;-2.00;99.90;;;;;;5123191;27;20180;-72
2022/12/17 20:46:18;;;;;;;;;;;-2.10;99.90;;;;;;5119152;27;20007;-73
2022/12/17 20:48:44;;;;;;;;;;;-2.10;99.90;;;;;;5122671;27;20343;-73
2022/12/17 20:51:10;;;;;;;;;;;-2.10;99.90;;;;;;5121428;27;20018;-74
2022/12/17 20:53:37;;;;;;;;;;;-2.20;99.90;;;;;;5124239;27;19973;-74
2022/12/17 20:56:04;;;;;;;;;;;-2.10;99.90;;;;;;5123997;27;19923;-73
2022/12/17 20:58:29;;;;;;;;;;;-2.10;99.90;;;;;;5120993;27;20529;-72
2022/12/17 21:01:06;;;;;;;;;;;-2.10;99.90;;;;;;5123143;27;19923;-72
2022/12/17 21:03:31;;;;;;;;;;;-2.00;99.90;;;;;;5122102;27;20262;-72
2022/12/17 21:06:08;;;;;;;;;;;-2.00;99.90;;;;;;5121875;27;20063;-72
2022/12/17 21:08:34;;;;;;;;;;;-2.10;99.90;;;;;;5123385;27;19924;-72
2022/12/17 21:11:00;;;;;;;;;;;-2.10;99.90;;;;;;5123913;27;19930;-73
2022/12/17 21:13:28;;;;;;;;;;;-2.10;99.90;;;;;;5120677;27;20319;-72
2022/12/17 21:15:54;;;;;;;;;;;-2.10;99.90;;;;;;5123281;27;19974;-74
2022/12/17 21:18:19;;;;;;;;;;;-2.10;99.90;;;;;;5125610;27;19919;-73
2022/12/17 21:20:55;;;;;;;;;;;-2.10;99.90;;;;;;5123247;27;19970;-74
2022/12/17 21:23:20;;;;;;;;;;;-2.00;99.90;;;;;;5121372;27;19958;-74
2022/12/17 21:25:46;;;;;;;;;;;-2.00;99.90;;;;;;5109893;27;20370;-73
2022/12/17 21:28:11;;;;;;;;;;;-2.00;99.90;;;;;;5120677;27;20359;-73
2022/12/17 21:30:38;;;;;;;;;;;-2.10;99.90;;;;;;5123969;27;20021;-70
2022/12/17 21:33:03;;;;;;;;;;;-2.00;99.90;;;;;;5122185;27;19959;-72
2022/12/17 21:35:29;;;;;;;;;;;-2.10;99.90;;;;;;5127550;27;20391;-73
2022/12/17 21:37:54;;;;;;;;;;;-2.10;99.90;;;;;;5123038;27;19963;-72
2022/12/17 21:40:20;;;;;;;;;;;-2.10;99.90;;;;;;5122239;27;19927;-72
2022/12/17 21:43:00;;;;;;;;;;;-2.00;99.90;;;;;;5139817;27;19974;-72
2022/12/17 21:45:26;;;;;;;;;;;-2.10;99.90;;;;;;5126318;27;19923;-72
2022/12/17 21:47:52;;;;;;;;;;;-2.10;99.90;;;;;;5119850;27;19920;-73
2022/12/17 21:50:17;;;;;;;;;;;-2.10;99.90;;;;;;5125136;27;19930;-71
2022/12/17 21:52:43;;;;;;;;;;;-2.10;99.90;;;;;;5127158;27;19976;-72
2022/12/17 21:55:08;;;;;;;;;;;-2.10;99.90;;;;;;5127535;27;20008;-72
2022/12/17 21:57:34;;;;;;;;;;;-2.10;99.90;;;;;;5125732;27;20010;-73
2022/12/17 21:59:59;;;;;;;;;;;-2.10;99.90;;;;;;5126645;27;20346;-72
2022/12/17 22:02:25;;;;;;;;;;;-2.20;99.90;;;;;;5123987;27;20422;-72
2022/12/17 22:04:50;;;;;;;;;;;-2.20;99.90;;;;;;5123304;27;19971;-72
2022/12/17 22:07:16;;;;;;;;;;;-2.20;99.90;;;;;;5127276;27;19923;-73
2022/12/17 22:09:41;;;;;;;;;;;-2.10;99.90;;;;;;5119136;27;19920;-73
2022/12/17 22:14:51;;;;;;;;;;;-2.20;99.90;;;;;;5124290;27;19934;-72
2022/12/17 22:17:16;;;;;;;;;;;-2.10;99.90;;;;;;5116577;27;20370;-71
2022/12/17 22:19:42;;;;;;;;;;;-2.10;99.90;;;;;;5119836;27;19933;-70
2022/12/17 22:22:07;;;;;;;;;;;-2.20;99.90;;;;;;5125414;27;20514;-71
2022/12/17 22:24:33;;;;;;;;;;;-2.10;99.90;;;;;;5119657;27;19926;-72
2022/12/17 22:26:59;;;;;;;;;;;-2.30;99.90;;;;;;5123380;27;19927;-70
2022/12/17 22:34:57;;;;;;;;;;;-2.30;99.90;;;;;;5127086;27;19987;-71
2022/12/17 22:37:23;;;;;;;;;;;-2.30;99.90;;;;;;5125364;27;19919;-73
2022/12/17 22:39:48;;;;;;;;;;;-2.30;99.90;;;;;;5126980;27;20026;-71
2022/12/17 22:44:58;;;;;;;;;;;-2.40;99.90;;;;;;5129984;27;19936;-72
2022/12/17 22:47:23;;;;;;;;;;;-2.50;99.90;;;;;;5126395;27;20523;-72
2022/12/17 22:49:49;;;;;;;;;;;-2.50;99.90;;;;;;5114822;27;19919;-72
2022/12/17 22:52:14;;;;;;;;;;;-2.50;99.90;;;;;;5122119;27;19974;-72
2022/12/17 22:54:40;;;;;;;;;;;-2.40;99.90;;;;;;5118313;27;19965;-72
2022/12/17 22:57:08;;;;;;;;;;;-2.40;99.90;;;;;;5124648;27;19950;-72
2022/12/17 22:59:34;;;;;;;;;;;-2.60;99.90;;;;;;5130088;27;19972;-72
2022/12/17 23:01:59;;;;;;;;;;;-2.50;99.90;;;;;;5121835;27;19920;-72
2022/12/17 23:04:25;;;;;;;;;;;-2.50;99.90;;;;;;5108010;27;20426;-73
2022/12/17 23:06:50;;;;;;;;;;;-2.50;99.90;;;;;;5124903;27;19926;-72
2022/12/17 23:09:18;;;;;;;;;;;-2.50;99.90;;;;;;5126842;27;19962;-72
2022/12/17 23:11:43;;;;;;;;;;;-2.50;99.90;;;;;;5121280;27;20385;-73
2022/12/17 23:14:09;;;;;;;;;;;-2.50;99.90;;;;;;5124349;27;19928;-72
2022/12/17 23:16:36;;;;;;;;;;;-2.50;99.90;;;;;;5127879;27;19935;-72
2022/12/17 23:19:02;;;;;;;;;;;-2.40;99.90;;;;;;5125608;27;19923;-72
2022/12/17 23:21:27;;;;;;;;;;;-2.50;99.90;;;;;;5120752;27;19926;-71
2022/12/17 23:23:54;;;;;;;;;;;-2.50;99.90;;;;;;5106997;27;20433;-72
2022/12/17 23:26:21;;;;;;;;;;;-2.50;99.90;;;;;;5124961;27;19966;-72
2022/12/17 23:28:47;;;;;;;;;;;-2.60;99.90;;;;;;5123752;27;19927;-71
2022/12/17 23:31:14;;;;;;;;;;;-2.60;99.90;;;;;;5122031;27;19960;-72
2022/12/17 23:33:40;;;;;;;;;;;-2.50;99.90;;;;;;5126633;27;20419;-72
2022/12/17 23:36:07;;;;;;;;;;;-2.60;99.90;;;;;;5124715;27;19923;-71
2022/12/17 23:38:33;;;;;;;;;;;-2.60;99.90;;;;;;5125515;27;19923;-72
2022/12/17 23:41:09;;;;;;;;;;;-2.60;99.90;;;;;;5123491;27;20037;-72
2022/12/17 23:43:35;;;;;;;;;;;-2.70;99.90;;;;;;5125235;27;19928;-71
2022/12/17 23:46:00;;;;;;;;;;;-2.60;99.90;;;;;;5124213;27;20370;-72
2022/12/17 23:48:30;;;;;;;;;;;-2.70;99.90;;;;;;5124354;27;19934;-72
2022/12/17 23:50:56;;;;;;;;;;;-2.70;99.90;;;;;;5126434;27;19919;-71
2022/12/17 23:53:21;;;;;;;;;;;-2.70;99.90;;;;;;5121587;27;19957;-71
2022/12/17 23:55:48;;;;;;;;;;;-2.70;99.90;;;;;;5121954;27;20047;-72
2022/12/17 23:58:13;;;;;;;;;;;-2.70;99.90;;;;;;5106392;27;21571;-72
